Time;durP1;ratioP1;P1;durP2;ratioP2;P2;SDS_P1;SDS_P2;PMS_P1;PMS_P2;Temp;Humidity;BMP_temperature;BMP_pressure;BME280_temperature;BME280_humidity;BME280_pressure;Samples;Min_cycle;Max_cycle;Signal;HPM_P1;HPM_P2
2022/10/06 00:01:57;;;;;;;;;1.00;1.00;;;;;17.20;54.77;102073.09;5085445;27;62317;-44
2022/10/06 00:04:22;;;;;;;;;3.00;0.50;;;;;17.19;54.63;102072.25;5062264;27;55865;-44
2022/10/06 00:06:47;;;;;;;;;1.00;0.75;;;;;17.16;54.78;102076.78;5093539;27;60411;-45
2022/10/06 00:09:13;;;;;;;;;3.00;1.00;;;;;17.12;54.65;102083.91;5069654;27;45449;-46
2022/10/06 00:11:38;;;;;;;;;1.75;1.00;;;;;17.06;54.74;102081.47;5094306;27;62698;-43
2022/10/06 00:14:04;;;;;;;;;6.50;2.00;;;;;17.02;54.58;102093.09;5090014;27;45366;-44
2022/10/06 00:16:29;;;;;;;;;5.75;2.00;;;;;16.99;54.64;102096.69;5099071;27;45458;-46
2022/10/06 00:18:55;;;;;;;;;3.25;1.00;;;;;16.95;54.56;102092.41;5092975;27;62286;-48
2022/10/06 00:21:21;;;;;;;;;6.75;1.00;;;;;16.95;54.74;102104.78;5089645;27;45196;-46
2022/10/06 00:23:46;;;;;;;;;2.00;2.00;;;;;16.94;54.63;102097.75;5088249;27;48712;-45
2022/10/06 00:26:15;;;;;;;;;5.50;2.00;;;;;16.93;54.95;102114.50;5086775;27;68927;-44
2022/10/06 00:28:49;;;;;;;;;3.00;2.00;;;;;16.92;54.90;102121.59;5096709;27;46186;-44
2022/10/06 00:31:18;;;;;;;;;6.25;1.00;;;;;16.91;54.45;102126.91;5085486;27;53568;-46
2022/10/06 00:33:43;;;;;;;;;3.00;2.00;;;;;16.86;54.72;102127.94;5066431;27;45458;-43
2022/10/06 00:36:08;;;;;;;;;4.50;1.75;;;;;16.88;54.43;102130.53;5088965;27;45422;-45
2022/10/06 00:38:34;;;;;;;;;4.25;1.00;;;;;16.86;54.89;102140.31;5092505;27;54289;-44
2022/10/06 00:40:59;;;;;;;;;3.00;2.00;;;;;16.84;54.84;102135.06;5098409;27;50979;-49
2022/10/06 00:43:48;;;;;;;;;4.75;1.00;;;;;16.83;54.77;102143.91;5085418;27;51284;-47
2022/10/06 00:46:33;;;;;;;;;5.00;0.25;;;;;16.81;54.78;102144.84;5088279;27;46758;-45
2022/10/06 00:49:21;;;;;;;;;0.50;0.50;;;;;16.78;54.83;102145.78;5093193;27;45591;-47
2022/10/06 00:51:50;;;;;;;;;9.25;1.25;;;;;16.75;54.81;102140.59;5071617;27;45821;-43
2022/10/06 00:54:16;;;;;;;;;4.50;1.50;;;;;16.72;54.71;102145.97;5088795;27;45343;-43
2022/10/06 00:56:42;;;;;;;;;2.75;1.75;;;;;16.69;55.08;102138.97;5090817;27;45671;-43
2022/10/06 00:59:10;;;;;;;;;2.00;1.00;;;;;16.67;54.81;102147.88;5065057;27;45261;-47
2022/10/06 01:01:35;;;;;;;;;3.00;1.50;;;;;16.66;55.20;102149.69;5090887;27;45900;-44
2022/10/06 01:04:05;;;;;;;;;1.00;1.00;;;;;16.66;54.93;102151.44;5084522;27;61660;-47
2022/10/06 01:06:40;;;;;;;;;4.00;1.00;;;;;16.65;54.81;102153.22;5069044;27;45380;-47
2022/10/06 01:09:06;;;;;;;;;0.75;0.25;;;;;16.66;55.25;102162.00;5064167;27;45566;-44
2022/10/06 01:11:33;;;;;;;;;3.00;1.50;;;;;16.65;54.99;102162.94;5061205;28;45290;-44
2022/10/06 01:13:59;;;;;;;;;1.00;1.00;;;;;16.64;54.98;102161.19;5061225;28;45418;-45
2022/10/06 01:16:25;;;;;;;;;1.25;0.75;;;;;16.61;55.04;102167.44;5087920;27;60806;-43
2022/10/06 01:18:52;;;;;;;;;3.00;0.75;;;;;16.61;54.86;102172.72;5075483;27;45390;-43
2022/10/06 01:21:34;;;;;;;;;3.50;0.75;;;;;16.61;55.00;102172.72;5098938;27;45355;-44
2022/10/06 01:24:04;;;;;;;;;4.75;1.25;;;;;16.60;55.20;102176.28;5064723;27;45494;-42
2022/10/06 01:26:31;;;;;;;;;1.75;1.00;;;;;16.59;54.94;102174.56;5087690;27;45565;-45
2022/10/06 01:28:56;;;;;;;;;3.00;1.00;;;;;16.57;55.14;102180.78;5077839;27;46782;-45
2022/10/06 01:31:22;;;;;;;;;3.00;1.00;;;;;16.58;55.16;102183.38;5075395;27;57250;-44
2022/10/06 01:33:52;;;;;;;;;2.50;2.00;;;;;16.60;55.36;102180.69;5070106;27;49678;-44
2022/10/06 01:36:18;;;;;;;;;2.00;1.00;;;;;16.60;55.23;102191.28;5091726;27;45387;-45
2022/10/06 01:38:43;;;;;;;;;0.00;0.00;;;;;16.59;55.10;102189.53;5090266;27;46039;-45
2022/10/06 01:41:09;;;;;;;;;3.25;1.00;;;;;16.58;55.14;102188.66;5087045;27;69430;-44
2022/10/06 01:43:34;;;;;;;;;5.50;2.00;;;;;16.57;55.03;102188.72;5085390;27;53410;-44
2022/10/06 01:45:59;;;;;;;;;2.75;1.25;;;;;16.56;55.11;102197.56;5100457;27;57264;-44
2022/10/06 01:48:25;;;;;;;;;5.50;1.00;;;;;16.54;55.02;102187.03;5095688;27;45286;-44
2022/10/06 01:50:51;;;;;;;;;1.50;1.00;;;;;16.50;54.91;102190.66;5088513;27;45288;-42
2022/10/06 01:53:16;;;;;;;;;6.00;1.50;;;;;16.47;55.00;102185.47;5089713;27;59402;-43
2022/10/06 01:55:41;;;;;;;;;3.25;1.25;;;;;16.46;55.22;102189.88;5083514;27;45630;-42
2022/10/06 01:58:08;;;;;;;;;3.25;1.00;;;;;16.44;55.17;102189.06;5092598;27;46186;-43
2022/10/06 02:00:33;;;;;;;;;2.00;1.00;;;;;16.45;55.12;102190.81;5082503;27;45934;-42
2022/10/06 02:02:59;;;;;;;;;7.50;1.00;;;;;16.45;55.03;102196.09;5081774;27;54275;-42
2022/10/06 02:05:24;;;;;;;;;3.75;1.00;;;;;16.43;54.80;102194.38;5086703;27;48324;-43
2022/10/06 02:07:49;;;;;;;;;1.50;1.00;;;;;16.42;54.66;102201.44;5077439;27;60301;-42
2022/10/06 02:10:15;;;;;;;;;3.00;1.00;;;;;16.41;55.05;102198.84;5083377;27;61049;-42
2022/10/06 02:12:41;;;;;;;;;2.00;0.25;;;;;16.40;54.48;102202.41;5089604;27;45878;-42
2022/10/06 02:15:09;;;;;;;;;5.25;1.00;;;;;16.39;54.93;102208.59;5091122;27;45380;-42
2022/10/06 02:17:36;;;;;;;;;4.25;2.00;;;;;16.40;54.66;102199.78;5091727;27;46972;-42
2022/10/06 02:20:02;;;;;;;;;4.50;1.50;;;;;16.41;54.75;102212.06;5087778;27;45257;-42
2022/10/06 02:22:27;;;;;;;;;3.00;1.25;;;;;16.39;54.41;102222.66;5073518;27;45338;-43
2022/10/06 02:24:52;;;;;;;;;4.25;1.50;;;;;16.37;54.35;102215.72;5086715;27;61044;-46
2022/10/06 02:27:18;;;;;;;;;6.25;1.00;;;;;16.33;54.61;102217.56;5085306;27;48173;-43
2022/10/06 02:29:43;;;;;;;;;7.50;1.00;;;;;16.34;54.31;102219.28;5091032;27;45465;-43
2022/10/06 02:32:09;;;;;;;;;4.50;0.25;;;;;16.32;54.18;102219.34;5062052;27;45670;-43
2022/10/06 02:34:34;;;;;;;;;5.50;2.00;;;;;16.30;54.40;102229.06;5086212;27;45678;-45
2022/10/06 02:37:00;;;;;;;;;3.50;1.25;;;;;16.29;53.80;102224.72;5077341;27;69221;-43
2022/10/06 02:39:25;;;;;;;;;3.00;1.50;;;;;16.27;54.25;102234.47;5090233;27;45478;-44
2022/10/06 02:41:52;;;;;;;;;7.00;1.00;;;;;16.26;54.24;102235.34;5082344;27;45314;-48
2022/10/06 02:44:17;;;;;;;;;2.25;1.00;;;;;16.24;54.06;102236.31;5083173;27;69277;-48
2022/10/06 02:46:42;;;;;;;;;1.00;0.75;;;;;16.23;54.13;102242.50;5094333;27;47077;-48
2022/10/06 02:49:08;;;;;;;;;4.50;1.00;;;;;16.19;53.75;102233.78;5089633;27;45410;-48
2022/10/06 02:51:33;;;;;;;;;3.25;1.00;;;;;16.17;53.88;102235.59;5084111;27;51598;-48
2022/10/06 02:53:58;;;;;;;;;1.00;1.00;;;;;16.16;53.84;102243.56;5073647;27;45306;-48
2022/10/06 02:56:25;;;;;;;;;2.00;2.00;;;;;16.13;53.59;102234.81;5094424;27;55851;-47
2022/10/06 02:58:51;;;;;;;;;1.75;0.75;;;;;16.10;53.67;102240.16;5095019;27;45492;-48
2022/10/06 03:01:19;;;;;;;;;5.50;0.00;;;;;16.07;53.55;102237.59;5083541;27;45576;-44
2022/10/06 03:03:45;;;;;;;;;1.00;0.00;;;;;16.04;53.76;102248.28;5094317;27;45480;-43
2022/10/06 03:06:21;;;;;;;;;1.75;0.00;;;;;16.01;53.07;102258.91;5100778;27;45392;-44
2022/10/06 03:08:50;;;;;;;;;3.00;1.00;;;;;15.98;53.98;102255.47;5096171;27;45288;-43
2022/10/06 03:11:18;;;;;;;;;1.50;1.00;;;;;15.96;53.69;102258.16;5092818;27;45458;-45
2022/10/06 03:13:48;;;;;;;;;1.00;0.75;;;;;15.96;53.52;102257.28;5047072;28;46957;-46
2022/10/06 03:16:14;;;;;;;;;1.75;0.75;;;;;15.92;53.87;102254.72;5089608;27;45635;-44
2022/10/06 03:18:42;;;;;;;;;3.25;1.00;;;;;15.94;53.85;102265.25;5095622;27;45321;-43
2022/10/06 03:21:08;;;;;;;;;4.00;1.00;;;;;15.94;53.52;102260.81;5085975;27;45169;-44
2022/10/06 03:23:33;;;;;;;;;3.00;0.75;;;;;15.92;53.69;102260.00;5090942;27;68152;-44
2022/10/06 03:25:58;;;;;;;;;6.75;1.75;;;;;15.93;53.67;102258.22;5087531;27;72140;-43
2022/10/06 03:28:24;;;;;;;;;6.25;1.00;;;;;15.93;53.78;102263.50;5083211;27;61522;-44
2022/10/06 03:30:49;;;;;;;;;4.00;0.75;;;;;15.91;53.88;102268.81;5051892;27;55268;-43
2022/10/06 03:33:14;;;;;;;;;3.00;1.75;;;;;15.90;53.53;102268.84;5087120;27;66175;-44
2022/10/06 03:35:40;;;;;;;;;4.50;2.00;;;;;15.88;53.64;102271.56;5087968;27;62610;-43
2022/10/06 03:38:05;;;;;;;;;4.75;0.75;;;;;15.88;53.74;102279.47;5097689;27;45498;-43
2022/10/06 03:40:31;;;;;;;;;6.00;1.75;;;;;15.88;53.64;102276.81;5087637;27;60004;-43
2022/10/06 03:42:56;;;;;;;;;6.75;1.25;;;;;15.87;53.41;102282.13;5085942;27;45381;-47
2022/10/06 03:45:21;;;;;;;;;3.75;2.00;;;;;15.85;53.67;102289.22;5090971;27;47083;-42
2022/10/06 03:47:47;;;;;;;;;4.00;1.50;;;;;15.82;53.84;102291.94;5088910;27;45464;-42
2022/10/06 03:50:12;;;;;;;;;2.00;1.50;;;;;15.81;53.80;102301.66;5090495;27;45931;-48
2022/10/06 03:52:37;;;;;;;;;3.00;0.00;;;;;15.75;53.66;102299.13;5087586;27;45280;-44
2022/10/06 03:55:03;;;;;;;;;4.25;2.00;;;;;15.73;53.81;102306.19;5075996;28;68218;-45
2022/10/06 03:57:28;;;;;;;;;2.25;0.75;;;;;15.70;53.93;102309.75;5084779;27;45354;-44
2022/10/06 03:59:58;;;;;;;;;3.25;1.75;;;;;15.70;53.73;102306.25;5088729;27;61611;-45
2022/10/06 04:02:23;;;;;;;;;4.25;1.00;;;;;15.67;53.60;102307.22;5090007;27;46745;-45
2022/10/06 04:04:48;;;;;;;;;2.00;1.50;;;;;15.67;53.69;102312.47;5088840;27;62493;-43
2022/10/06 04:07:14;;;;;;;;;2.50;1.50;;;;;15.67;53.74;102324.78;5098792;27;45389;-44
2022/10/06 04:09:39;;;;;;;;;3.75;1.25;;;;;15.66;53.66;102323.06;5091169;27;45304;-44
2022/10/06 04:12:04;;;;;;;;;4.25;1.75;;;;;15.66;53.68;102323.94;5091212;27;61887;-43
2022/10/06 04:14:29;;;;;;;;;1.00;0.75;;;;;15.64;53.91;102333.66;5091192;27;61596;-44
2022/10/06 04:16:56;;;;;;;;;2.75;1.25;;;;;15.62;53.90;102334.63;5092752;27;58795;-47
2022/10/06 04:19:22;;;;;;;;;4.50;1.25;;;;;15.61;53.92;102335.50;5097390;27;45416;-43
2022/10/06 04:21:47;;;;;;;;;4.25;1.00;;;;;15.62;53.74;102337.25;5084759;27;65348;-43
2022/10/06 04:24:13;;;;;;;;;3.50;1.00;;;;;15.60;54.00;102333.75;5085503;27;46506;-45
2022/10/06 04:26:41;;;;;;;;;4.75;1.75;;;;;15.58;53.59;102333.78;5075460;27;45368;-43
2022/10/06 04:29:06;;;;;;;;;3.50;0.75;;;;;15.54;53.86;102340.91;5084998;27;45654;-44
2022/10/06 04:31:35;;;;;;;;;1.00;0.75;;;;;15.50;53.85;102343.66;5082006;27;45534;-43
2022/10/06 04:34:02;;;;;;;;;3.75;0.75;;;;;15.49;53.98;102337.53;5085016;27;45474;-43
2022/10/06 04:36:30;;;;;;;;;4.00;0.50;;;;;15.49;54.15;102344.53;5091118;27;45972;-45
2022/10/06 04:38:57;;;;;;;;;2.50;1.75;;;;;15.49;53.80;102344.53;5078040;27;45277;-44
2022/10/06 04:41:25;;;;;;;;;2.00;0.50;;;;;15.48;53.98;102351.59;5095507;27;46771;-45
2022/10/06 04:43:50;;;;;;;;;3.25;1.75;;;;;15.45;53.92;102353.44;5088937;27;46200;-45
2022/10/06 04:46:17;;;;;;;;;8.75;1.75;;;;;15.44;54.14;102357.84;5062666;27;45292;-46
2022/10/06 04:48:42;;;;;;;;;1.00;0.75;;;;;15.42;53.87;102356.13;5074059;27;45801;-42
2022/10/06 04:51:15;;;;;;;;;2.50;1.00;;;;;15.39;54.28;102351.81;5090635;27;64555;-46
2022/10/06 04:53:43;;;;;;;;;5.00;0.50;;;;;15.36;53.92;102350.09;5092647;27;46353;-46
2022/10/06 04:56:11;;;;;;;;;4.50;1.50;;;;;15.37;54.06;102359.75;5095231;27;45763;-42
2022/10/06 04:58:38;;;;;;;;;5.25;1.75;;;;;15.34;54.29;102351.03;5072973;27;45394;-43
2022/10/06 05:01:16;;;;;;;;;4.00;1.75;;;;;15.34;54.09;102358.94;5079049;27;45474;-43
2022/10/06 05:03:42;;;;;;;;;5.25;0.75;;;;;15.33;54.52;102363.38;5088412;27;45662;-42
2022/10/06 05:06:13;;;;;;;;;2.00;2.00;;;;;15.35;54.18;102361.56;5088683;27;45814;-43
2022/10/06 05:08:38;;;;;;;;;3.00;1.75;;;;;15.35;54.14;102368.56;5088775;27;45440;-43
2022/10/06 05:11:10;;;;;;;;;4.00;1.75;;;;;15.36;54.26;102362.41;5077231;27;48617;-45
2022/10/06 05:13:36;;;;;;;;;6.00;2.00;;;;;15.36;54.26;102365.06;5094006;27;46226;-43
2022/10/06 05:16:02;;;;;;;;;5.75;1.75;;;;;15.37;54.33;102366.81;5069170;27;45790;-43
2022/10/06 05:18:29;;;;;;;;;5.25;1.50;;;;;15.38;54.60;102368.53;5096380;27;45431;-44
2022/10/06 05:20:59;;;;;;;;;5.75;1.75;;;;;15.36;54.06;102373.81;5087120;27;45525;-43
2022/10/06 05:23:26;;;;;;;;;3.75;1.25;;;;;15.33;54.25;102366.00;5087824;27;45311;-44
2022/10/06 05:25:52;;;;;;;;;2.00;1.75;;;;;15.35;54.66;102365.94;5086930;27;45716;-43
2022/10/06 05:28:18;;;;;;;;;5.00;1.50;;;;;15.35;54.45;102379.13;5097088;27;45425;-45
2022/10/06 05:30:55;;;;;;;;;4.50;1.50;;;;;15.34;54.35;102372.13;5089362;27;45549;-45
2022/10/06 05:33:21;;;;;;;;;7.00;1.75;;;;;15.35;54.24;102381.75;5092020;27;45474;-43
2022/10/06 05:35:51;;;;;;;;;4.00;1.25;;;;;15.35;54.07;102380.03;5080120;28;45312;-45
2022/10/06 05:38:17;;;;;;;;;4.00;1.50;;;;;15.35;54.06;102384.41;5076299;27;45321;-42
2022/10/06 05:40:42;;;;;;;;;4.00;2.00;;;;;15.34;54.37;102380.03;5096587;27;66394;-43
2022/10/06 05:43:07;;;;;;;;;3.25;1.00;;;;;15.35;54.55;102393.22;5092235;27;67217;-42
2022/10/06 05:45:32;;;;;;;;;2.75;1.00;;;;;15.36;54.64;102396.72;5085661;27;63602;-44
2022/10/06 05:47:58;;;;;;;;;6.50;1.50;;;;;15.38;54.15;102393.13;5092063;27;55710;-45
2022/10/06 05:50:23;;;;;;;;;14.00;9.75;;;;;15.42;54.54;102393.06;5085751;27;62453;-44
2022/10/06 05:52:48;;;;;;;;;6.00;4.00;;;;;15.44;54.58;102400.06;5090275;27;46959;-44
2022/10/06 05:55:14;;;;;;;;;12.00;8.25;;;;;15.46;54.41;102400.03;5090240;27;62891;-45
2022/10/06 05:57:39;;;;;;;;;7.00;3.25;;;;;15.46;54.36;102405.31;5097245;27;45785;-48
2022/10/06 06:00:05;;;;;;;;;4.50;3.50;;;;;15.46;54.61;102410.59;5084165;27;45606;-44
2022/10/06 06:02:31;;;;;;;;;5.25;2.50;;;;;15.49;54.36;102413.16;5094734;27;46422;-45
2022/10/06 06:04:56;;;;;;;;;5.25;3.00;;;;;15.49;54.44;102410.50;5083187;27;63843;-44
2022/10/06 06:07:21;;;;;;;;;7.75;5.75;;;;;15.48;54.28;102411.44;5086164;27;60447;-45
2022/10/06 06:09:47;;;;;;;;;7.50;3.00;;;;;15.48;54.33;102406.16;5082701;27;63226;-43
2022/10/06 06:12:13;;;;;;;;;10.75;8.00;;;;;15.47;54.58;102415.81;5090308;27;62541;-43
2022/10/06 06:17:22;;;;;;;;;6.25;3.00;;;;;15.46;54.65;102421.16;5086593;27;45625;-49
2022/10/06 06:19:47;;;;;;;;;2.75;1.25;;;;;15.45;54.60;102419.41;5093023;27;69942;-46
2022/10/06 06:22:12;;;;;;;;;3.50;2.00;;;;;15.43;54.38;102418.56;5093471;27;67147;-45
2022/10/06 06:24:38;;;;;;;;;6.50;2.50;;;;;15.44;54.27;102421.19;5087719;27;45660;-43
2022/10/06 06:27:03;;;;;;;;;15.75;10.25;;;;;15.44;54.41;102420.28;5085480;27;60367;-48
2022/10/06 06:29:28;;;;;;;;;9.75;1.25;;;;;15.45;54.22;102433.44;5099687;27;52695;-49
2022/10/06 06:31:54;;;;;;;;;8.50;3.50;;;;;15.44;54.51;102431.72;5081411;27;71585;-49
2022/10/06 06:34:19;;;;;;;;;4.00;1.50;;;;;15.42;54.21;102432.63;5099275;27;59975;-45
2022/10/06 06:36:50;;;;;;;;;4.00;2.00;;;;;15.40;54.41;102431.81;5099686;27;48943;-46
2022/10/06 06:39:18;;;;;;;;;2.75;2.00;;;;;15.38;54.13;102442.38;5106705;27;45517;-44
2022/10/06 06:41:45;;;;;;;;;5.00;2.75;;;;;15.37;54.15;102438.03;5092171;27;46106;-46
2022/10/06 06:44:11;;;;;;;;;3.50;3.00;;;;;15.33;54.39;102439.84;5064365;27;45763;-44
2022/10/06 06:46:37;;;;;;;;;6.75;2.25;;;;;15.33;54.53;102449.53;5098999;27;45278;-43
2022/10/06 06:49:04;;;;;;;;;7.25;2.25;;;;;15.33;54.52;102452.16;5090537;27;45291;-44
2022/10/06 06:51:31;;;;;;;;;7.00;2.50;;;;;15.32;54.40;102453.94;5087338;27;47026;-45
2022/10/06 06:53:58;;;;;;;;;5.50;2.00;;;;;15.32;54.36;102456.56;5091546;27;45952;-45
2022/10/06 06:56:23;;;;;;;;;11.00;2.50;;;;;15.34;54.74;102465.31;5095460;27;45619;-45
2022/10/06 06:58:49;;;;;;;;;5.75;2.75;;;;;15.35;54.26;102464.44;5078378;28;55572;-46
2022/10/06 07:01:17;;;;;;;;;8.00;2.00;;;;;15.35;54.48;102469.72;5089860;27;47050;-45
2022/10/06 07:03:44;;;;;;;;;6.25;2.00;;;;;15.37;54.54;102474.97;5076429;27;45494;-45
2022/10/06 07:06:15;;;;;;;;;6.50;3.00;;;;;15.40;54.41;102482.78;5097104;27;45406;-45
2022/10/06 07:08:42;;;;;;;;;10.50;2.00;;;;;15.43;54.79;102474.81;5069973;27;45474;-46
2022/10/06 07:11:21;;;;;;;;;6.00;5.00;;;;;15.44;54.70;102481.84;5092821;27;46328;-46
2022/10/06 07:13:52;;;;;;;;;7.25;6.75;;;;;15.46;54.65;102487.97;5084269;27;45285;-44
2022/10/06 07:27:20;;;;;;;;;9.50;2.25;;;;;15.58;54.54;102500.03;5098822;27;45398;-43
2022/10/06 07:29:45;;;;;;;;;6.00;3.25;;;;;15.60;54.26;102500.00;5098663;27;56556;-44
2022/10/06 07:32:12;;;;;;;;;8.00;2.00;;;;;15.62;54.00;102503.50;5091670;27;46194;-47
2022/10/06 07:34:38;;;;;;;;;5.50;3.00;;;;;15.65;54.25;102508.72;5099676;27;45395;-44
2022/10/06 07:37:03;;;;;;;;;6.75;2.00;;;;;15.66;54.15;102507.81;5081919;27;45417;-45
2022/10/06 07:39:30;;;;;;;;;8.75;3.00;;;;;15.66;54.16;102513.97;5100312;27;45342;-44
2022/10/06 07:41:56;;;;;;;;;5.00;1.50;;;;;15.68;53.73;102512.16;5100379;27;46905;-43
2022/10/06 07:44:21;;;;;;;;;10.50;4.25;;;;;15.70;54.03;102512.13;5097793;27;45363;-43
2022/10/06 07:46:47;;;;;;;;;3.00;1.75;;;;;15.72;53.99;102520.88;5082284;27;45341;-47
2022/10/06 07:49:16;;;;;;;;;7.00;2.75;;;;;15.72;53.96;102524.41;5100209;27;45512;-46
2022/10/06 07:51:41;;;;;;;;;6.50;3.00;;;;;15.73;54.09;102520.84;5100229;27;47219;-46
2022/10/06 07:54:07;;;;;;;;;4.00;2.25;;;;;15.74;53.83;102525.28;5100259;27;45348;-43
2022/10/06 07:56:33;;;;;;;;;6.50;2.50;;;;;15.78;53.44;102538.44;5100059;27;45318;-46
2022/10/06 07:58:58;;;;;;;;;2.75;2.50;;;;;15.77;53.83;102534.88;5099427;27;61754;-46
2022/10/06 08:01:26;;;;;;;;;2.25;1.25;;;;;15.80;53.83;102541.91;5091883;27;46104;-44
2022/10/06 08:03:51;;;;;;;;;4.00;4.00;;;;;15.79;53.60;102545.44;5091013;27;45277;-43
2022/10/06 08:06:18;;;;;;;;;6.25;2.75;;;;;15.82;53.76;102537.44;5098759;27;45580;-44
2022/10/06 08:08:44;;;;;;;;;9.00;1.75;;;;;15.88;53.87;102547.88;5099938;27;45450;-44
2022/10/06 08:11:11;;;;;;;;;4.00;2.25;;;;;15.90;53.62;102540.78;5099393;27;45439;-45
2022/10/06 08:13:39;;;;;;;;;3.25;1.75;;;;;15.93;53.43;102549.50;5100238;27;45815;-44
2022/10/06 08:16:08;;;;;;;;;5.00;3.00;;;;;15.94;53.29;102545.13;5100179;27;45446;-44
2022/10/06 08:18:33;;;;;;;;;5.75;2.75;;;;;15.94;53.41;102550.41;5080838;27;45502;-44
2022/10/06 08:20:59;;;;;;;;;5.00;2.00;;;;;15.97;53.43;102552.09;5099672;27;46045;-43
2022/10/06 08:23:25;;;;;;;;;4.75;3.00;;;;;15.98;53.22;102549.44;5099006;27;68723;-44
2022/10/06 08:25:53;;;;;;;;;3.75;2.50;;;;;16.00;53.47;102552.03;5067853;27;45335;-45
2022/10/06 08:28:21;;;;;;;;;9.50;2.00;;;;;16.00;53.19;102555.53;5099946;27;45306;-43
2022/10/06 08:30:48;;;;;;;;;3.50;3.00;;;;;16.01;53.30;102562.59;5099732;27;45431;-46
2022/10/06 08:33:13;;;;;;;;;7.50;3.25;;;;;16.05;53.33;102564.25;5081124;27;45173;-45
2022/10/06 08:35:38;;;;;;;;;5.00;2.75;;;;;16.09;53.08;102563.28;5098372;27;51517;-43
2022/10/06 08:38:04;;;;;;;;;3.25;2.00;;;;;16.13;53.06;102564.97;5099938;27;61030;-44
2022/10/06 08:40:31;;;;;;;;;5.00;2.00;;;;;16.17;53.17;102568.41;5094871;27;45366;-43
2022/10/06 08:42:59;;;;;;;;;2.00;2.00;;;;;16.19;53.53;102571.03;5102434;27;69091;-43
2022/10/06 08:45:39;;;;;;;;;9.00;4.00;;;;;16.22;53.08;102574.47;5068608;27;45229;-45
2022/10/06 08:48:16;;;;;;;;;4.75;2.00;;;;;16.24;52.89;102575.31;5103387;27;45389;-44
2022/10/06 08:50:59;;;;;;;;;4.00;1.50;;;;;16.27;52.86;102577.00;5102834;27;46550;-44
2022/10/06 08:53:30;;;;;;;;;7.00;3.75;;;;;16.30;52.72;102582.22;5100600;27;45358;-44
2022/10/06 08:56:16;;;;;;;;;11.75;3.50;;;;;16.33;52.98;102582.16;5082194;27;45351;-44
2022/10/06 08:59:04;;;;;;;;;5.75;2.00;;;;;16.38;52.93;102587.34;5077452;27;45299;-44
2022/10/06 09:01:50;;;;;;;;;7.00;2.50;;;;;16.40;52.90;102594.34;5102607;27;46184;-46
2022/10/06 09:04:25;;;;;;;;;3.00;3.00;;;;;16.41;52.36;102597.84;5102875;27;45732;-43
2022/10/06 09:07:04;;;;;;;;;3.25;2.00;;;;;16.40;53.05;102594.34;5081146;28;45419;-45
2022/10/06 09:09:45;;;;;;;;;6.25;4.00;;;;;16.43;52.99;102594.28;5090409;27;45368;-44
2022/10/06 09:12:26;;;;;;;;;8.00;3.25;;;;;16.42;52.94;102586.38;5102885;27;45442;-44
2022/10/06 09:15:10;;;;;;;;;6.25;3.50;;;;;16.52;52.52;102591.44;5101986;27;45260;-46
2022/10/06 09:17:45;;;;;;;;;4.25;3.00;;;;;16.59;52.67;102599.22;5102903;27;45437;-45
2022/10/06 09:20:19;;;;;;;;;8.25;3.00;;;;;16.61;52.48;102597.41;5065052;27;45291;-44
2022/10/06 09:22:46;;;;;;;;;4.00;3.00;;;;;16.67;52.68;102606.06;5101522;27;45470;-44
2022/10/06 09:25:25;;;;;;;;;4.25;2.75;;;;;16.70;52.61;102600.72;5070107;27;45253;-47
2022/10/06 09:27:56;;;;;;;;;5.00;2.00;;;;;16.74;52.60;102588.28;5081082;28;45472;-44
2022/10/06 09:30:23;;;;;;;;;6.00;3.00;;;;;16.79;52.63;102598.78;5101748;27;45231;-47
2022/10/06 09:32:59;;;;;;;;;4.00;4.00;;;;;16.84;52.46;102602.22;5102617;27;45492;-45
2022/10/06 09:35:28;;;;;;;;;7.25;2.75;;;;;16.83;52.51;102589.84;5080631;28;45405;-49
2022/10/06 09:38:04;;;;;;;;;8.25;3.25;;;;;16.93;52.62;102601.09;5076422;27;45538;-44
2022/10/06 09:40:36;;;;;;;;;8.50;3.00;;;;;16.94;52.31;102593.13;5067585;27;45379;-45
2022/10/06 09:43:03;;;;;;;;;5.75;2.00;;;;;16.99;52.03;102603.63;5102344;27;46304;-45
2022/10/06 09:45:30;;;;;;;;;4.75;2.25;;;;;17.00;52.04;102598.28;5104634;27;45638;-45
2022/10/06 09:48:19;;;;;;;;;8.50;2.00;;;;;17.02;51.94;102598.25;5102190;27;45220;-45
2022/10/06 09:51:05;;;;;;;;;4.50;2.25;;;;;17.05;52.22;102601.69;5102076;27;45394;-45
2022/10/06 09:53:31;;;;;;;;;6.50;2.00;;;;;17.08;52.18;102596.31;5102574;27;45366;-44
2022/10/06 09:55:56;;;;;;;;;6.00;2.00;;;;;17.13;51.51;102592.72;5100687;27;71572;-45
2022/10/06 09:58:26;;;;;;;;;4.75;2.50;;;;;17.16;51.58;102588.22;5102198;27;45351;-45
2022/10/06 10:00:54;;;;;;;;;4.25;2.00;;;;;17.19;51.84;102593.44;5097858;27;45454;-47
2022/10/06 10:03:20;;;;;;;;;6.50;2.50;;;;;17.21;51.97;102590.72;5083673;27;45982;-46
2022/10/06 10:05:48;;;;;;;;;6.25;3.00;;;;;17.25;51.66;102593.25;5101949;27;45349;-45
2022/10/06 10:08:17;;;;;;;;;7.25;4.75;;;;;17.29;51.68;102596.69;5080487;28;45297;-45
2022/10/06 10:10:42;;;;;;;;;8.50;3.00;;;;;17.32;51.86;102591.34;5096641;27;45210;-46
2022/10/06 10:13:20;;;;;;;;;7.00;2.00;;;;;17.37;51.39;102591.19;5101725;27;45304;-43
2022/10/06 10:15:53;;;;;;;;;6.00;4.00;;;;;17.40;51.57;102583.19;5102020;27;45463;-44
2022/10/06 10:18:25;;;;;;;;;3.50;2.00;;;;;17.45;51.22;102597.16;5101160;27;45340;-45
2022/10/06 10:20:58;;;;;;;;;8.25;6.00;;;;;17.50;51.61;102589.13;5084183;27;45363;-44
2022/10/06 10:23:29;;;;;;;;;5.75;3.25;;;;;17.52;51.12;102592.59;5101760;27;46136;-44
2022/10/06 10:26:14;;;;;;;;;8.00;5.00;;;;;17.53;51.13;102587.25;5079998;28;45686;-44
2022/10/06 10:28:49;;;;;;;;;3.00;3.00;;;;;17.57;50.66;102599.50;5077502;27;45194;-43
2022/10/06 10:31:19;;;;;;;;;7.00;2.75;;;;;17.61;50.98;102589.69;5079811;28;45316;-44
2022/10/06 10:33:55;;;;;;;;;8.00;5.00;;;;;17.66;50.81;102585.16;5097456;27;47352;-44
2022/10/06 10:36:29;;;;;;;;;2.75;2.75;;;;;17.69;50.15;102582.44;5082593;27;45299;-49
2022/10/06 10:38:55;;;;;;;;;4.25;4.00;;;;;17.73;50.53;102586.72;5083063;27;45247;-49
2022/10/06 10:41:27;;;;;;;;;10.25;4.00;;;;;17.75;50.44;102582.25;5082237;27;68154;-47
2022/10/06 10:44:07;;;;;;;;;4.00;2.00;;;;;17.80;50.18;102584.78;5083163;27;45381;-49
2022/10/06 10:46:39;;;;;;;;;3.00;1.00;;;;;17.85;49.60;102580.22;5101336;27;45649;-47
2022/10/06 10:49:12;;;;;;;;;5.00;2.00;;;;;17.89;50.09;102578.38;5083150;27;45323;-47
2022/10/06 10:51:48;;;;;;;;;1.50;1.00;;;;;17.91;49.84;102577.41;5094733;27;45319;-47
2022/10/06 10:54:18;;;;;;;;;2.75;2.00;;;;;17.98;49.52;102581.63;5101200;27;46181;-44
2022/10/06 10:56:47;;;;;;;;;4.00;1.00;;;;;18.02;49.18;102580.66;5082548;27;45659;-48
2022/10/06 10:59:16;;;;;;;;;8.50;3.25;;;;;18.05;49.42;102579.69;5101123;27;45481;-46
2022/10/06 11:01:50;;;;;;;;;4.25;2.00;;;;;18.09;48.40;102580.47;5079380;28;45242;-48
2022/10/06 11:04:15;;;;;;;;;2.00;1.00;;;;;18.12;48.85;102573.28;5076105;27;47079;-45
2022/10/06 11:07:05;;;;;;;;;3.00;1.25;;;;;18.17;49.08;102574.03;5082158;27;60909;-45
2022/10/06 11:09:43;;;;;;;;;5.00;1.75;;;;;18.25;48.83;102571.13;5099951;27;45614;-45
2022/10/06 11:12:45;;;;;;;;;5.00;2.00;;;;;18.33;48.81;102569.13;5101263;27;45473;-45
2022/10/06 11:15:48;;;;;;;;;5.75;3.00;;;;;18.43;48.50;102576.78;5101562;27;46261;-45
2022/10/06 11:18:34;;;;;;;;;8.50;2.00;;;;;18.48;48.60;102575.72;5101543;27;45368;-46
2022/10/06 11:21:10;;;;;;;;;1.50;1.50;;;;;18.52;47.79;102576.50;5066386;28;45503;-46
2022/10/06 11:23:47;;;;;;;;;4.00;2.00;;;;;18.53;47.58;102571.16;5096023;27;45393;-45
2022/10/06 11:26:39;;;;;;;;;5.00;2.00;;;;;18.54;47.72;102578.22;5099577;27;45987;-48
2022/10/06 11:29:30;;;;;;;;;3.00;2.25;;;;;18.54;47.22;102574.69;5082454;27;45455;-46
2022/10/06 11:32:23;;;;;;;;;4.50;1.00;;;;;18.55;47.36;102568.47;5082673;27;45193;-43
2022/10/06 11:34:49;;;;;;;;;3.75;1.50;;;;;18.54;47.04;102570.25;5082491;27;45364;-46
2022/10/06 11:37:17;;;;;;;;;2.00;2.00;;;;;18.55;46.47;102564.03;5097412;27;46229;-45
2022/10/06 11:39:43;;;;;;;;;3.00;2.25;;;;;18.57;46.98;102563.97;5082231;27;45357;-46
2022/10/06 11:42:22;;;;;;;;;2.00;2.00;;;;;18.57;47.15;102571.94;5094137;27;45474;-44
2022/10/06 11:45:02;;;;;;;;;4.75;3.75;;;;;18.57;46.65;102558.66;5095159;27;45473;-46
2022/10/06 11:47:33;;;;;;;;;8.25;4.50;;;;;18.57;46.32;102561.31;5100491;27;47168;-44